createdAt,value
2019-04-04T00:00:59.571Z,7.60
2019-04-04T00:03:25.706Z,7.60
2019-04-04T00:05:51.863Z,7.60
2019-04-04T00:08:18.002Z,7.50
2019-04-04T00:10:44.151Z,7.50
2019-04-04T00:13:11.128Z,7.50
2019-04-04T00:15:37.846Z,7.50
2019-04-04T00:18:04.333Z,7.50
2019-04-04T00:20:31.874Z,7.40
2019-04-04T00:22:59.747Z,7.40
2019-04-04T00:25:26.890Z,7.40
2019-04-04T00:27:53.039Z,7.40
2019-04-04T00:30:19.196Z,7.40
2019-04-04T00:32:45.326Z,7.40
2019-04-04T00:35:11.478Z,7.30
2019-04-04T00:37:37.669Z,7.30
2019-04-04T00:40:05.306Z,7.30
2019-04-04T00:42:31.459Z,7.30
2019-04-04T00:44:57.976Z,7.30
2019-04-04T00:47:24.133Z,7.20
2019-04-04T00:49:50.623Z,7.20
2019-04-04T00:52:17.063Z,7.20
2019-04-04T00:54:44.906Z,7.20
2019-04-04T00:57:11.267Z,7.20
2019-04-04T00:59:37.468Z,7.20
2019-04-04T01:02:04.007Z,7.20
2019-04-04T01:04:31.179Z,7.20
2019-04-04T01:06:58.121Z,7.20
2019-04-04T01:09:24.268Z,7.20
2019-04-04T01:11:51.327Z,7.10
2019-04-04T01:14:18.339Z,7.10
2019-04-04T01:16:44.492Z,7.10
2019-04-04T01:19:10.631Z,7.10
2019-04-04T01:21:36.765Z,7.10
2019-04-04T01:24:03.147Z,7.00
2019-04-04T01:26:29.359Z,7.00
2019-04-04T01:28:55.509Z,7.00
2019-04-04T01:31:21.932Z,7.00
2019-04-04T01:33:50.832Z,7.00
2019-04-04T01:36:16.132Z,7.00
2019-04-04T01:38:42.560Z,6.90
2019-04-04T01:41:08.715Z,7.00
2019-04-04T01:43:35.034Z,7.00
2019-04-04T01:46:01.174Z,6.90
2019-04-04T01:48:27.583Z,7.00
2019-04-04T01:50:54.249Z,6.90
2019-04-04T01:53:20.473Z,6.90
2019-04-04T01:55:46.616Z,6.80
2019-04-04T01:58:12.767Z,6.80
2019-04-04T02:00:38.918Z,6.80
2019-04-04T02:03:05.401Z,6.80
2019-04-04T02:05:31.887Z,6.70
2019-04-04T02:07:58.902Z,6.70
2019-04-04T02:10:26.300Z,6.70
2019-04-04T02:12:52.439Z,6.70
2019-04-04T02:15:18.873Z,6.70
2019-04-04T02:17:44.987Z,6.70
2019-04-04T02:20:11.528Z,6.70
2019-04-04T02:22:37.671Z,6.60
2019-04-04T02:25:04.914Z,6.60
2019-04-04T02:27:31.068Z,6.60
2019-04-04T02:29:57.219Z,6.60
2019-04-04T02:32:26.675Z,6.50
2019-04-04T02:34:52.816Z,6.50
2019-04-04T02:37:21.372Z,6.50
2019-04-04T02:39:47.017Z,6.40
2019-04-04T02:42:13.212Z,6.40
2019-04-04T02:44:39.360Z,6.30
2019-04-04T02:47:05.702Z,6.30
2019-04-04T02:49:31.860Z,6.20
2019-04-04T02:51:58.094Z,6.20
2019-04-04T02:54:26.741Z,6.20
2019-04-04T02:56:53.376Z,6.10
2019-04-04T02:59:21.428Z,6.10
2019-04-04T03:01:47.567Z,6.00
2019-04-04T03:04:14.466Z,6.10
2019-04-04T03:06:40.660Z,6.10
2019-04-04T03:09:09.969Z,6.10
2019-04-04T03:11:34.939Z,6.10
2019-04-04T03:14:03.700Z,6.10
2019-04-04T03:16:29.491Z,6.10
2019-04-04T03:18:55.682Z,6.20
2019-04-04T03:21:23.379Z,6.10
2019-04-04T03:23:49.898Z,6.10
2019-04-04T03:26:18.930Z,6.00
2019-04-04T03:28:44.091Z,5.90
2019-04-04T03:31:10.291Z,6.00
2019-04-04T03:33:36.490Z,6.00
2019-04-04T03:36:02.628Z,6.00
2019-04-04T03:38:28.785Z,6.00
2019-04-04T03:40:57.903Z,6.00
2019-04-04T03:43:22.990Z,6.00
2019-04-04T03:45:49.810Z,6.00
2019-04-04T03:48:17.732Z,6.00
2019-04-04T03:50:43.996Z,6.00
2019-04-04T03:53:10.129Z,5.90
2019-04-04T03:55:36.288Z,5.90
2019-04-04T03:58:02.440Z,5.90
2019-04-04T04:00:30.301Z,6.00
2019-04-04T04:02:56.748Z,6.00
2019-04-04T04:05:27.909Z,6.00
2019-04-04T04:07:54.448Z,6.00
2019-04-04T04:10:20.697Z,6.00
2019-04-04T04:12:46.849Z,6.10
2019-04-04T04:15:13.036Z,6.10
2019-04-04T04:17:39.185Z,6.20
2019-04-04T04:20:05.436Z,6.20
2019-04-04T04:22:31.591Z,6.20
2019-04-04T04:25:02.297Z,6.20
2019-04-04T04:27:25.800Z,6.30
2019-04-04T04:29:52.252Z,6.20
2019-04-04T04:32:21.420Z,6.20
2019-04-04T04:34:46.764Z,6.30
2019-04-04T04:37:12.907Z,6.30
2019-04-04T04:39:41.435Z,6.30
2019-04-04T04:42:07.096Z,6.30
2019-04-04T04:44:37.829Z,6.20
2019-04-04T04:47:01.992Z,6.20
2019-04-04T04:49:28.434Z,6.20
2019-04-04T04:51:54.588Z,6.20
2019-04-04T04:54:22.806Z,6.20
2019-04-04T04:56:49.041Z,6.20
2019-04-04T04:59:15.176Z,6.10
2019-04-04T05:01:41.331Z,6.10
2019-04-04T05:04:07.468Z,6.20
2019-04-04T05:06:35.764Z,6.20
2019-04-04T05:09:01.663Z,6.20
2019-04-04T05:11:29.003Z,6.30
2019-04-04T05:13:56.115Z,6.30
2019-04-04T05:16:23.575Z,6.20
2019-04-04T05:18:49.725Z,6.10
2019-04-04T05:21:24.787Z,6.20
2019-04-04T05:23:44.959Z,6.10
2019-04-04T05:26:12.222Z,6.20
2019-04-04T05:28:41.709Z,6.20
2019-04-04T05:31:07.503Z,6.20
2019-04-04T05:33:33.661Z,6.20
2019-04-04T05:35:59.829Z,6.20
2019-04-04T05:38:25.970Z,6.20
2019-04-04T05:40:55.011Z,6.20
2019-04-04T05:43:20.398Z,6.50
2019-04-04T05:45:46.619Z,6.50
2019-04-04T05:48:13.174Z,6.50
2019-04-04T05:50:39.355Z,6.50
2019-04-04T05:53:05.633Z,6.50
2019-04-04T05:55:31.832Z,6.50
2019-04-04T05:57:58.067Z,6.50
2019-04-04T06:00:26.936Z,6.50
2019-04-04T06:02:52.528Z,6.60
2019-04-04T06:05:18.751Z,6.60
2019-04-04T06:07:44.900Z,6.60
2019-04-04T06:10:12.140Z,6.60
2019-04-04T06:12:38.556Z,6.60
2019-04-04T06:15:05.543Z,6.60
2019-04-04T06:17:32.004Z,6.70
2019-04-04T06:19:58.140Z,6.70
2019-04-04T06:22:24.291Z,6.80
2019-04-04T06:24:52.084Z,6.90
2019-04-04T06:27:18.492Z,6.80
2019-04-04T06:29:47.680Z,6.90
2019-04-04T06:32:12.687Z,7.00
2019-04-04T06:34:39.038Z,7.00
2019-04-04T06:37:05.560Z,7.00
2019-04-04T06:39:33.729Z,7.00
2019-04-04T06:42:02.886Z,7.10
2019-04-04T06:44:28.036Z,7.10
2019-04-04T06:46:54.304Z,7.10
2019-04-04T06:49:20.573Z,7.20
2019-04-04T06:51:47.251Z,7.30
2019-04-04T06:54:14.240Z,7.20
2019-04-04T06:56:40.688Z,7.30
2019-04-04T06:59:06.837Z,7.30
2019-04-04T07:01:32.980Z,7.40
2019-04-04T07:03:59.497Z,7.40
2019-04-04T07:06:26.393Z,7.40
2019-04-04T07:08:52.538Z,7.40
2019-04-04T07:11:21.366Z,7.50
2019-04-04T07:13:46.715Z,7.60
2019-04-04T07:16:12.886Z,7.60
2019-04-04T07:18:39.026Z,7.70
2019-04-04T07:21:05.170Z,7.80
2019-04-04T07:23:33.316Z,7.80
2019-04-04T07:25:59.442Z,7.90
2019-04-04T07:28:25.591Z,7.80
2019-04-04T07:30:54.468Z,7.80
2019-04-04T07:33:21.352Z,7.90
2019-04-04T07:35:48.858Z,7.80
2019-04-04T07:38:15.795Z,7.80
2019-04-04T07:40:41.931Z,7.80
2019-04-04T07:43:08.713Z,7.80
2019-04-04T07:45:35.116Z,7.90
2019-04-04T07:48:01.507Z,8.30
2019-04-04T07:50:27.888Z,8.10
2019-04-04T07:52:54.142Z,8.00
2019-04-04T07:55:20.370Z,8.10
2019-04-04T07:57:46.539Z,8.20
2019-04-04T08:00:13.083Z,8.30
2019-04-04T08:02:39.226Z,8.40
2019-04-04T08:05:07.789Z,8.30
2019-04-04T08:07:34.167Z,8.50
2019-04-04T08:10:00.395Z,8.40
2019-04-04T08:12:26.571Z,8.80
2019-04-04T08:14:52.707Z,8.90
2019-04-04T08:17:19.196Z,8.80
2019-04-04T08:19:45.701Z,8.60
2019-04-04T08:22:11.945Z,8.70
2019-04-04T08:24:38.303Z,8.70
2019-04-04T08:27:04.431Z,8.60
2019-04-04T08:29:30.603Z,8.70
2019-04-04T08:31:57.000Z,8.60
2019-04-04T08:34:23.465Z,8.70
2019-04-04T08:36:49.735Z,8.80
2019-04-04T08:39:15.883Z,8.80
2019-04-04T08:41:42.030Z,8.90
2019-04-04T08:44:08.192Z,9.10
2019-04-04T08:46:34.431Z,9.20
2019-04-04T08:49:00.908Z,9.10
2019-04-04T08:51:27.052Z,9.30
2019-04-04T08:53:53.384Z,9.30
2019-04-04T08:56:19.512Z,9.40
2019-04-04T08:58:45.884Z,9.40
2019-04-04T09:01:12.037Z,9.40
2019-04-04T09:03:38.479Z,9.40
2019-04-04T09:06:04.927Z,9.50
2019-04-04T09:08:31.079Z,9.40
2019-04-04T09:10:57.239Z,9.40
2019-04-04T09:13:23.698Z,9.40
2019-04-04T09:15:50.000Z,9.40
2019-04-04T09:18:16.462Z,9.50
2019-04-04T09:20:42.607Z,9.50
2019-04-04T09:23:08.847Z,9.40
2019-04-04T09:25:35.251Z,9.50
2019-04-04T09:28:01.404Z,9.50
2019-04-04T09:30:27.543Z,9.60
2019-04-04T09:32:53.688Z,9.40
2019-04-04T09:35:19.929Z,9.30
2019-04-04T09:37:46.398Z,9.30
2019-04-04T09:40:12.635Z,9.60
2019-04-04T09:42:38.784Z,9.50
2019-04-04T09:45:07.235Z,9.70
2019-04-04T09:47:33.505Z,9.80
2019-04-04T09:49:59.644Z,9.80
2019-04-04T09:52:25.916Z,9.90
2019-04-04T09:54:52.068Z,9.90
2019-04-04T09:57:18.211Z,9.90
2019-04-04T09:59:44.351Z,10.00
2019-04-04T10:02:10.936Z,9.90
2019-04-04T10:04:37.070Z,10.00
2019-04-04T10:07:03.517Z,9.90
2019-04-04T10:09:29.695Z,9.90
2019-04-04T10:11:55.893Z,9.90
2019-04-04T10:14:22.023Z,9.80
2019-04-04T10:16:48.451Z,9.80
2019-04-04T10:19:14.607Z,9.80
2019-04-04T10:21:41.191Z,9.80
2019-04-04T10:24:08.541Z,9.80
2019-04-04T10:26:34.689Z,9.80
2019-04-04T10:29:00.820Z,9.80
2019-04-04T10:31:26.959Z,9.80
2019-04-04T10:33:53.141Z,9.80
2019-04-04T10:36:19.393Z,9.80
2019-04-04T10:38:45.525Z,9.80
2019-04-04T10:41:11.671Z,9.80
2019-04-04T10:43:37.841Z,9.90
2019-04-04T10:46:04.187Z,9.90
2019-04-04T10:48:30.341Z,9.80
2019-04-04T10:50:57.203Z,9.90
2019-04-04T10:53:23.424Z,9.90
2019-04-04T10:55:49.799Z,9.90
2019-04-04T10:58:17.121Z,9.90
2019-04-04T11:00:43.280Z,9.90
2019-04-04T11:03:09.570Z,9.90
2019-04-04T11:05:36.067Z,10.00
2019-04-04T11:08:02.215Z,10.10
2019-04-04T11:10:28.460Z,10.00
2019-04-04T11:12:54.621Z,9.90
2019-04-04T11:15:20.755Z,9.80
2019-04-04T11:17:46.955Z,9.80
2019-04-04T11:20:13.300Z,9.90
2019-04-04T11:22:39.489Z,10.00
2019-04-04T11:25:06.196Z,9.90
2019-04-04T11:27:32.339Z,9.90
2019-04-04T11:29:59.720Z,9.70
2019-04-04T11:32:26.171Z,9.70
2019-04-04T11:34:53.430Z,9.80
2019-04-04T11:37:20.052Z,9.80
2019-04-04T11:39:54.527Z,9.70
2019-04-04T11:42:14.898Z,9.60
2019-04-04T11:44:41.054Z,9.60
2019-04-04T11:47:07.191Z,9.70
2019-04-04T11:49:33.343Z,9.60
2019-04-04T11:51:59.491Z,9.50
2019-04-04T11:54:25.668Z,9.50
2019-04-04T11:56:51.807Z,9.60
2019-04-04T11:59:17.955Z,9.50
2019-04-04T12:01:48.851Z,9.40
2019-04-04T12:04:15.031Z,9.40
2019-04-04T12:06:41.395Z,9.50
2019-04-04T12:09:07.751Z,9.50
2019-04-04T12:11:34.191Z,9.50
2019-04-04T12:14:00.701Z,9.40
2019-04-04T12:16:26.849Z,9.40
2019-04-04T12:18:53.000Z,9.40
2019-04-04T12:21:19.167Z,9.40
2019-04-04T12:23:45.367Z,9.50
2019-04-04T12:26:11.515Z,9.50
2019-04-04T12:28:37.685Z,9.50
2019-04-04T12:31:04.183Z,9.60
2019-04-04T12:33:30.441Z,9.60
2019-04-04T12:35:56.623Z,9.70
2019-04-04T12:38:22.789Z,9.70
2019-04-04T12:40:49.303Z,9.60
2019-04-04T12:43:15.544Z,9.60
2019-04-04T12:45:41.902Z,9.60
2019-04-04T12:48:09.240Z,9.80
2019-04-04T12:50:35.655Z,9.70
2019-04-04T12:53:01.891Z,9.70
2019-04-04T12:55:28.052Z,9.90
2019-04-04T12:57:54.451Z,9.70
2019-04-04T13:00:20.883Z,9.80
2019-04-04T13:02:47.043Z,9.80
2019-04-04T13:05:13.396Z,9.80
2019-04-04T13:07:39.547Z,9.80
2019-04-04T13:10:11.651Z,9.90
2019-04-04T13:12:35.595Z,9.70
2019-04-04T13:15:03.384Z,9.60
2019-04-04T13:17:30.191Z,9.50
2019-04-04T13:19:56.643Z,9.40
2019-04-04T13:22:23.019Z,9.40
2019-04-04T13:24:49.408Z,9.30
2019-04-04T13:27:17.724Z,9.30
2019-04-04T13:29:43.876Z,9.40
2019-04-04T13:32:10.277Z,9.20
2019-04-04T13:34:36.674Z,9.30
2019-04-04T13:37:03.049Z,9.30
2019-04-04T13:39:29.416Z,9.30
2019-04-04T13:41:55.598Z,9.30
2019-04-04T13:44:23.543Z,9.30
2019-04-04T13:46:49.917Z,9.20
2019-04-04T13:49:16.130Z,9.40
2019-04-04T13:51:42.383Z,9.40
2019-04-04T13:54:08.527Z,9.40
2019-04-04T13:56:34.979Z,9.40
2019-04-04T13:59:03.360Z,9.60
2019-04-04T14:01:29.271Z,9.70
2019-04-04T14:03:55.450Z,9.80
2019-04-04T14:06:21.596Z,9.60
2019-04-04T14:08:47.767Z,9.70
2019-04-04T14:11:13.919Z,9.60
2019-04-04T14:13:40.060Z,9.70
2019-04-04T14:16:06.199Z,9.60
2019-04-04T14:18:39.420Z,9.60
2019-04-04T14:21:03.844Z,9.60
2019-04-04T14:23:28.541Z,9.70
2019-04-04T14:25:54.695Z,9.60
2019-04-04T14:28:21.176Z,9.50
2019-04-04T14:30:47.625Z,9.40
2019-04-04T14:33:13.763Z,9.40
2019-04-04T14:35:40.354Z,9.30
2019-04-04T14:38:06.497Z,9.30
2019-04-04T14:40:33.736Z,9.30
2019-04-04T14:42:59.887Z,9.20
2019-04-04T14:45:26.032Z,9.00
2019-04-04T14:47:52.182Z,9.00
2019-04-04T14:50:18.372Z,9.10
2019-04-04T14:52:44.654Z,9.20
2019-04-04T14:55:11.006Z,9.00
2019-04-04T14:57:37.556Z,9.10
2019-04-04T15:00:07.804Z,9.10
2019-04-04T15:02:33.951Z,9.00
2019-04-04T15:05:00.105Z,9.10
2019-04-04T15:07:27.101Z,9.20
2019-04-04T15:09:53.610Z,9.20
2019-04-04T15:12:19.807Z,9.10
2019-04-04T15:14:45.974Z,9.10
2019-04-04T15:17:12.213Z,9.00
2019-04-04T15:19:38.387Z,9.10
2019-04-04T15:22:04.886Z,8.90
2019-04-04T15:24:31.295Z,9.00
2019-04-04T15:26:58.623Z,9.10
2019-04-04T15:29:24.780Z,9.10
2019-04-04T15:31:51.208Z,9.00
2019-04-04T15:34:17.427Z,9.00
2019-04-04T15:36:43.560Z,8.90
2019-04-04T15:39:09.719Z,9.00
2019-04-04T15:41:37.445Z,9.10
2019-04-04T15:44:04.196Z,9.00
2019-04-04T15:46:30.440Z,9.10
2019-04-04T15:48:56.736Z,9.20
2019-04-04T15:51:23.183Z,9.20
2019-04-04T15:53:49.335Z,9.20
2019-04-04T15:56:15.476Z,9.20
2019-04-04T15:58:41.639Z,9.10
2019-04-04T16:01:07.781Z,9.10
2019-04-04T16:03:34.260Z,9.20
2019-04-04T16:06:00.400Z,9.20
2019-04-04T16:08:26.555Z,9.20
2019-04-04T16:10:53.039Z,9.20
2019-04-04T16:13:19.284Z,9.10
2019-04-04T16:15:46.432Z,9.00
2019-04-04T16:18:12.824Z,9.00
2019-04-04T16:20:39.265Z,9.00
2019-04-04T16:23:05.395Z,9.00
2019-04-04T16:25:32.543Z,8.90
2019-04-04T16:27:58.688Z,9.10
2019-04-04T16:30:24.831Z,9.10
2019-04-04T16:32:51.227Z,9.20
2019-04-04T16:35:17.379Z,9.20
2019-04-04T16:37:43.894Z,9.30
2019-04-04T16:40:13.263Z,9.20
2019-04-04T16:42:39.411Z,9.10
2019-04-04T16:45:07.533Z,9.30
2019-04-04T16:47:34.227Z,9.40
2019-04-04T16:50:00.389Z,9.20
2019-04-04T16:52:26.536Z,9.20
2019-04-04T16:54:53.811Z,9.10
2019-04-04T16:57:20.175Z,9.10
2019-04-04T16:59:46.330Z,9.10
2019-04-04T17:02:12.485Z,9.10
2019-04-04T17:04:38.887Z,9.20
2019-04-04T17:07:05.152Z,9.00
2019-04-04T17:09:31.531Z,9.00
2019-04-04T17:11:57.731Z,9.10
2019-04-04T17:14:23.863Z,9.00
2019-04-04T17:16:50.061Z,9.00
2019-04-04T17:19:16.206Z,9.10
2019-04-04T17:21:42.366Z,9.10
2019-04-04T17:24:08.495Z,9.20
2019-04-04T17:26:34.630Z,9.00
2019-04-04T17:29:00.768Z,8.90
2019-04-04T17:31:27.290Z,8.80
2019-04-04T17:33:53.862Z,8.90
2019-04-04T17:36:21.453Z,9.00
2019-04-04T17:38:47.789Z,9.00
2019-04-04T17:41:13.986Z,9.00
2019-04-04T17:43:40.297Z,9.00
2019-04-04T17:46:06.943Z,8.80
2019-04-04T17:48:33.538Z,8.80
2019-04-04T17:50:59.876Z,8.70
2019-04-04T17:53:26.069Z,8.60
2019-04-04T17:55:54.892Z,8.50
2019-04-04T17:58:20.883Z,8.40
2019-04-04T18:00:47.108Z,8.40
2019-04-04T18:03:13.244Z,8.40
2019-04-04T18:05:39.387Z,8.40
2019-04-04T18:08:05.788Z,8.30
2019-04-04T18:10:31.945Z,8.30
2019-04-04T18:12:58.100Z,8.40
2019-04-04T18:15:24.312Z,8.40
2019-04-04T18:17:50.837Z,8.30
2019-04-04T18:20:17.492Z,8.20
2019-04-04T18:22:43.632Z,8.10
2019-04-04T18:25:10.225Z,7.90
2019-04-04T18:27:36.664Z,8.00
2019-04-04T18:30:08.473Z,8.00
2019-04-04T18:32:34.653Z,7.90
2019-04-04T18:35:01.368Z,7.90
2019-04-04T18:37:27.690Z,7.70
2019-04-04T18:39:53.836Z,7.60
2019-04-04T18:42:20.103Z,7.70
2019-04-04T18:44:46.231Z,7.80
2019-04-04T18:47:12.381Z,7.70
2019-04-04T18:49:38.820Z,7.70
2019-04-04T18:52:05.075Z,7.70
2019-04-04T18:54:31.223Z,7.70
2019-04-04T18:56:57.737Z,7.60
2019-04-04T18:59:23.864Z,7.60
2019-04-04T19:01:51.015Z,7.60
2019-04-04T19:04:17.190Z,7.60
2019-04-04T19:06:43.427Z,7.60
2019-04-04T19:09:15.027Z,7.50
2019-04-04T19:11:40.048Z,7.50
2019-04-04T19:14:06.206Z,7.40
2019-04-04T19:16:32.371Z,7.40
2019-04-04T19:18:58.836Z,7.40
2019-04-04T19:21:24.985Z,7.20
2019-04-04T19:23:51.135Z,7.10
2019-04-04T19:26:17.350Z,7.30
2019-04-04T19:28:43.486Z,7.40
2019-04-04T19:31:09.937Z,7.30
2019-04-04T19:33:36.087Z,7.20
2019-04-04T19:36:03.131Z,7.20
2019-04-04T19:38:29.279Z,7.00
2019-04-04T19:40:55.435Z,6.90
2019-04-04T19:43:21.583Z,7.00
2019-04-04T19:45:47.968Z,7.00
2019-04-04T19:48:15.111Z,6.90
2019-04-04T19:50:41.364Z,6.80
2019-04-04T19:53:07.495Z,6.80
2019-04-04T19:55:33.639Z,6.80
2019-04-04T19:57:59.776Z,6.80
2019-04-04T20:00:26.155Z,6.80
2019-04-04T20:02:52.310Z,6.80
2019-04-04T20:05:18.552Z,6.80
2019-04-04T20:07:44.780Z,6.80
2019-04-04T20:10:11.390Z,6.90
2019-04-04T20:12:37.618Z,6.90
2019-04-04T20:15:05.874Z,6.90
2019-04-04T20:17:32.830Z,7.00
2019-04-04T20:19:59.131Z,7.00
2019-04-04T20:22:25.299Z,6.90
2019-04-04T20:24:52.052Z,7.00
2019-04-04T20:27:18.275Z,7.00
2019-04-04T20:29:44.436Z,6.90
2019-04-04T20:32:10.575Z,6.90
2019-04-04T20:34:36.787Z,6.90
2019-04-04T20:37:03.208Z,6.90
2019-04-04T20:39:29.850Z,6.80
2019-04-04T20:41:56.286Z,6.80
2019-04-04T20:44:22.731Z,6.80
2019-04-04T20:46:49.162Z,6.80
2019-04-04T20:49:15.321Z,6.70
2019-04-04T20:51:41.797Z,6.80
2019-04-04T20:54:08.081Z,6.60
2019-04-04T20:56:34.236Z,6.60
2019-04-04T20:59:00.381Z,6.50
2019-04-04T21:01:27.031Z,6.60
2019-04-04T21:03:53.272Z,6.60
2019-04-04T21:06:19.797Z,6.60
2019-04-04T21:08:46.028Z,6.60
2019-04-04T21:11:12.557Z,6.60
2019-04-04T21:13:38.979Z,6.60
2019-04-04T21:16:05.248Z,6.50
2019-04-04T21:18:31.704Z,6.60
2019-04-04T21:20:58.139Z,6.60
2019-04-04T21:23:24.409Z,6.60
2019-04-04T21:25:50.792Z,6.60
2019-04-04T21:28:17.195Z,6.60
2019-04-04T21:30:43.927Z,6.60
2019-04-04T21:33:10.145Z,6.60
2019-04-04T21:35:36.541Z,6.60
2019-04-04T21:38:02.689Z,6.40
2019-04-04T21:40:30.302Z,6.40
2019-04-04T21:42:56.766Z,6.50
2019-04-04T21:45:23.192Z,6.70
2019-04-04T21:47:49.341Z,6.70
2019-04-04T21:50:15.496Z,6.80
2019-04-04T21:52:41.716Z,6.80
2019-04-04T21:55:08.067Z,6.80
2019-04-04T21:57:34.346Z,6.80
2019-04-04T22:00:00.498Z,6.70
2019-04-04T22:02:27.295Z,6.70
2019-04-04T22:04:53.637Z,6.70
2019-04-04T22:07:19.947Z,6.70
2019-04-04T22:09:46.392Z,6.70
2019-04-04T22:12:12.544Z,6.70
2019-04-04T22:14:38.951Z,6.70
2019-04-04T22:17:07.536Z,6.70
2019-04-04T22:19:34.003Z,6.70
2019-04-04T22:22:00.231Z,6.70
2019-04-04T22:24:26.688Z,6.50
2019-04-04T22:26:52.823Z,6.60
2019-04-04T22:29:18.977Z,6.60
2019-04-04T22:31:45.125Z,6.50
2019-04-04T22:34:11.550Z,6.60
2019-04-04T22:36:39.605Z,6.70
2019-04-04T22:39:06.677Z,6.70
2019-04-04T22:41:33.067Z,6.50
2019-04-04T22:44:03.631Z,6.50
2019-04-04T22:46:27.316Z,6.50
2019-04-04T22:48:54.862Z,6.50
2019-04-04T22:51:21.864Z,6.40
2019-04-04T22:53:48.024Z,6.30
2019-04-04T22:56:14.324Z,6.30
2019-04-04T22:58:40.468Z,6.30
2019-04-04T23:01:07.256Z,6.40
2019-04-04T23:03:33.409Z,6.40
2019-04-04T23:05:59.565Z,6.40
2019-04-04T23:08:26.716Z,6.40
2019-04-04T23:10:52.884Z,6.40
2019-04-04T23:13:19.023Z,6.30
2019-04-04T23:15:46.011Z,6.40
2019-04-04T23:18:12.147Z,6.30
2019-04-04T23:20:38.999Z,6.30
2019-04-04T23:23:06.663Z,6.40
2019-04-04T23:25:32.811Z,6.40
2019-04-04T23:27:58.954Z,6.30
2019-04-04T23:30:26.941Z,6.20
2019-04-04T23:32:53.087Z,6.20
2019-04-04T23:35:19.240Z,6.20
2019-04-04T23:37:45.378Z,6.20
2019-04-04T23:40:11.815Z,6.20
2019-04-04T23:42:37.955Z,6.20
2019-04-04T23:45:07.172Z,6.20
2019-04-04T23:47:42.686Z,6.30
2019-04-04T23:50:01.657Z,6.40
2019-04-04T23:52:27.799Z,6.40
2019-04-04T23:54:54.943Z,6.40
2019-04-04T23:57:21.107Z,6.40
2019-04-04T23:59:47.250Z,6.40
